Crawford, Oklahoma
Current Conditions -  °F | °C
As of 10:53 AM on Saturday 25 Oct 2014 (Local Time) from KGAG Reporting Station
Clear Clear  
Wind Chill: 22°   Ceiling: Unl
Heat Index: 22°   Visibility: 10mi
Dew Point: 12°   Wind: 5mph
Humidity: 53%   Direction: 260°W
Pressure: 30.12"   Gusts: NA
Location:  35.83°N, 99.8°W
Report Text: KGAG 251553Z AUTO 26004KT 10SM CLR 22/12 A3012 RMK AO2 SLP178 T02170117
Loading
Personal Weather Stations






























Interactive Weather Map
Tropical Storm Tracking
New forecast layout! Learn more

10-Day Weather Forecast

Advertisements
Track Severe Weather on mobile